createdAt,value
2018-06-07T00:01:07.543Z,98.70
2018-06-07T00:03:36.964Z,98.90
2018-06-07T00:06:05.865Z,99.40
2018-06-07T00:08:34.876Z,99.20
2018-06-07T00:11:03.779Z,99.30
2018-06-07T00:13:38.262Z,99.60
2018-06-07T00:16:07.283Z,99.50
2018-06-07T00:18:37.939Z,99.60
2018-06-07T00:21:08.710Z,99.60
2018-06-07T00:23:39.451Z,99.80
2018-06-07T00:26:08.367Z,99.90
2018-06-07T00:28:37.585Z,99.90
2018-06-07T00:31:06.688Z,99.90
2018-06-07T00:33:37.268Z,99.90
2018-06-07T00:36:07.872Z,99.90
2018-06-07T00:38:36.866Z,99.90
2018-06-07T00:41:07.127Z,99.90
2018-06-07T00:43:36.643Z,99.90
2018-06-07T00:46:05.656Z,99.90
2018-06-07T00:48:36.059Z,99.90
2018-06-07T00:51:04.983Z,99.90
2018-06-07T00:53:34.170Z,99.90
2018-06-07T00:56:03.071Z,99.90
2018-06-07T00:58:33.671Z,99.90
2018-06-07T01:01:02.607Z,99.90
2018-06-07T01:03:32.713Z,99.90
2018-06-07T01:06:01.980Z,99.90
2018-06-07T01:08:31.159Z,99.90
2018-06-07T01:11:01.623Z,99.90
2018-06-07T01:13:37.874Z,99.90
2018-06-07T01:16:09.328Z,99.90
2018-06-07T01:18:38.224Z,99.90
2018-06-07T01:21:08.961Z,99.90
2018-06-07T01:23:39.172Z,99.90
2018-06-07T01:26:08.541Z,99.90
2018-06-07T01:28:37.407Z,99.90
2018-06-07T01:31:11.991Z,99.90
2018-06-07T01:36:18.375Z,99.90
2018-06-07T01:39:11.235Z,99.90
2018-06-07T01:41:41.764Z,99.90
2018-06-07T01:44:10.683Z,99.90
2018-06-07T01:46:39.687Z,99.90
2018-06-07T01:49:10.009Z,99.90
2018-06-07T01:51:38.958Z,99.90
2018-06-07T01:54:08.055Z,99.90
2018-06-07T01:59:06.691Z,99.90
2018-06-07T02:01:35.977Z,99.90
2018-06-07T02:06:33.778Z,99.90
2018-06-07T02:09:05.206Z,99.90
2018-06-07T02:11:42.691Z,99.90
2018-06-07T02:14:13.024Z,99.90
2018-06-07T02:16:43.343Z,99.90
2018-06-07T02:19:12.252Z,99.90
2018-06-07T02:21:43.183Z,99.90
2018-06-07T02:24:12.091Z,99.90
2018-06-07T02:26:42.567Z,99.90
2018-06-07T02:29:11.475Z,99.90
2018-06-07T02:31:46.024Z,99.90
2018-06-07T02:36:46.255Z,99.90
2018-06-07T02:39:15.178Z,99.90
2018-06-07T02:41:45.297Z,99.90
2018-06-07T02:44:14.212Z,99.90
2018-06-07T02:46:43.228Z,99.90
2018-06-07T02:49:13.584Z,99.90
2018-06-07T02:54:11.331Z,99.90
2018-06-07T02:56:40.340Z,99.90
2018-06-07T02:59:10.482Z,99.90
2018-06-07T03:04:08.485Z,99.90
2018-06-07T03:06:38.859Z,99.90
2018-06-07T03:09:09.443Z,99.90
2018-06-07T03:11:38.540Z,99.90
2018-06-07T03:14:08.732Z,99.90
2018-06-07T03:16:38.943Z,99.90
2018-06-07T03:19:07.838Z,99.90
2018-06-07T03:21:38.431Z,99.90
2018-06-07T03:24:07.558Z,99.90
2018-06-07T03:26:38.117Z,99.90
2018-06-07T03:29:07.040Z,99.90
2018-06-07T03:31:45.126Z,99.90
2018-06-07T03:34:15.448Z,99.90
2018-06-07T03:36:46.283Z,99.90
2018-06-07T03:39:15.195Z,99.90
2018-06-07T03:41:45.904Z,99.90
2018-06-07T03:44:14.844Z,99.90
2018-06-07T03:46:44.100Z,99.90
2018-06-07T03:49:14.152Z,99.90
2018-06-07T03:51:43.727Z,99.90
2018-06-07T03:54:12.646Z,99.90
2018-06-07T03:56:41.568Z,99.90
2018-06-07T03:59:11.680Z,99.90
2018-06-07T04:01:40.927Z,99.90
2018-06-07T04:04:10.885Z,99.90
2018-06-07T04:06:41.156Z,99.90
2018-06-07T04:09:10.163Z,99.90
2018-06-07T04:11:39.440Z,99.90
2018-06-07T04:14:09.891Z,99.90
2018-06-07T04:21:47.646Z,99.90
2018-06-07T04:24:16.600Z,99.90
2018-06-07T04:26:47.326Z,99.90
2018-06-07T04:29:16.191Z,99.90
2018-06-07T04:31:46.543Z,99.90
2018-06-07T04:34:16.920Z,99.90
2018-06-07T04:36:47.639Z,99.90
2018-06-07T04:41:46.861Z,99.90
2018-06-07T04:46:44.759Z,99.90
2018-06-07T04:49:15.576Z,99.90
2018-06-07T04:51:44.636Z,99.90
2018-06-07T04:54:13.526Z,99.90
2018-06-07T04:56:42.876Z,99.90
2018-06-07T05:01:43.180Z,99.90
2018-06-07T05:04:13.745Z,99.90
2018-06-07T05:06:42.703Z,99.90
2018-06-07T05:09:11.935Z,99.90
2018-06-07T05:14:11.559Z,99.90
2018-06-07T05:16:42.508Z,99.90
2018-06-07T05:19:13.439Z,99.90
2018-06-07T05:21:42.443Z,99.90
2018-06-07T05:24:11.535Z,99.90
2018-06-07T05:26:42.533Z,99.90
2018-06-07T05:29:13.100Z,99.90
2018-06-07T05:31:51.407Z,99.90
2018-06-07T05:34:21.835Z,99.90
2018-06-07T05:39:20.861Z,99.90
2018-06-07T05:41:51.992Z,99.90
2018-06-07T05:44:20.984Z,99.90
2018-06-07T05:46:51.070Z,99.90
2018-06-07T05:49:22.639Z,99.90
2018-06-07T05:51:51.700Z,99.90
2018-06-07T05:54:23.225Z,99.90
2018-06-07T05:59:23.808Z,99.90
2018-06-07T06:01:54.745Z,99.90
2018-06-07T06:04:23.674Z,99.90
2018-06-07T06:06:52.992Z,99.90
2018-06-07T06:09:22.317Z,99.90
2018-06-07T06:11:51.692Z,99.90
2018-06-07T06:14:30.972Z,99.90
2018-06-07T06:17:01.467Z,99.90
2018-06-07T06:19:32.431Z,99.90
2018-06-07T06:22:01.348Z,99.90
2018-06-07T06:24:32.407Z,99.90
2018-06-07T06:27:02.980Z,99.90
2018-06-07T06:29:32.267Z,99.90
2018-06-07T06:34:31.704Z,99.90
2018-06-07T06:37:02.529Z,99.90
2018-06-07T06:39:39.728Z,99.90
2018-06-07T06:42:10.252Z,99.90
2018-06-07T06:47:07.848Z,99.90
2018-06-07T06:49:38.012Z,99.90
2018-06-07T06:52:06.932Z,99.90
2018-06-07T06:54:36.139Z,99.90
2018-06-07T06:59:36.600Z,99.90
2018-06-07T07:02:05.732Z,99.90
2018-06-07T07:04:35.208Z,99.90
2018-06-07T07:07:04.128Z,99.90
2018-06-07T07:09:33.393Z,99.90
2018-06-07T07:12:02.766Z,99.90
2018-06-07T07:14:33.632Z,99.50
2018-06-07T07:17:02.556Z,99.40
2018-06-07T07:19:33.455Z,99.10
2018-06-07T07:22:02.379Z,99.20
2018-06-07T07:24:32.956Z,98.90
2018-06-07T07:27:03.528Z,99.20
2018-06-07T07:29:33.015Z,98.90
2018-06-07T07:32:03.757Z,99.00
2018-06-07T07:34:34.347Z,98.80
2018-06-07T07:42:09.770Z,99.00
2018-06-07T07:44:38.835Z,98.60
2018-06-07T07:47:07.760Z,98.80
2018-06-07T07:49:38.143Z,98.80
2018-06-07T07:52:07.078Z,99.00
2018-06-07T07:54:37.788Z,99.00
2018-06-07T07:57:08.444Z,98.70
2018-06-07T08:02:07.487Z,98.60
2018-06-07T08:04:36.956Z,98.80
2018-06-07T08:07:06.325Z,98.80
2018-06-07T08:09:35.462Z,98.30
2018-06-07T08:12:04.723Z,98.30
2018-06-07T08:14:35.294Z,98.40
2018-06-07T08:17:04.229Z,98.30
2018-06-07T08:19:34.715Z,98.60
2018-06-07T08:22:05.248Z,98.50
2018-06-07T08:24:34.643Z,98.60
2018-06-07T08:27:05.384Z,98.40
2018-06-07T08:32:05.824Z,97.50
2018-06-07T08:34:34.795Z,97.30
2018-06-07T08:37:06.387Z,97.20
2018-06-07T08:39:35.469Z,96.90
2018-06-07T08:42:06.617Z,97.00
2018-06-07T08:44:35.753Z,96.50
2018-06-07T08:47:04.647Z,97.00
2018-06-07T08:49:35.116Z,96.70
2018-06-07T08:52:05.773Z,95.70
2018-06-07T08:57:05.031Z,95.30
2018-06-07T08:59:35.511Z,95.60
2018-06-07T09:04:33.519Z,95.50
2018-06-07T09:07:02.814Z,95.60
2018-06-07T09:09:31.783Z,95.10
2018-06-07T09:12:01.404Z,93.70
2018-06-07T09:14:32.147Z,93.80
2018-06-07T09:17:01.363Z,94.30
2018-06-07T09:19:32.224Z,94.10
2018-06-07T09:22:01.214Z,93.80
2018-06-07T09:24:30.111Z,94.10
2018-06-07T09:29:36.041Z,93.40
2018-06-07T09:32:06.368Z,93.60
2018-06-07T09:34:35.562Z,93.00
2018-06-07T09:37:06.501Z,93.40
2018-06-07T09:39:35.811Z,93.30
2018-06-07T09:42:06.947Z,92.90
2018-06-07T09:44:36.255Z,92.60
2018-06-07T09:49:35.071Z,91.80
2018-06-07T09:52:05.583Z,91.80
2018-06-07T09:54:34.883Z,92.50
2018-06-07T09:57:03.790Z,91.60
2018-06-07T09:59:34.297Z,92.30
2018-06-07T10:02:03.535Z,92.10
2018-06-07T10:04:32.482Z,91.90
2018-06-07T10:07:01.699Z,90.10
2018-06-07T10:09:30.799Z,90.10
2018-06-07T10:11:59.972Z,90.20
2018-06-07T10:14:31.960Z,91.10
2018-06-07T10:17:02.530Z,90.70
2018-06-07T10:19:33.442Z,90.70
2018-06-07T10:22:02.793Z,91.10
2018-06-07T10:24:31.712Z,90.10
2018-06-07T10:27:02.363Z,90.30
2018-06-07T10:32:01.671Z,90.60
2018-06-07T10:34:36.484Z,90.40
2018-06-07T10:37:06.746Z,90.30
2018-06-07T10:39:35.666Z,89.60
2018-06-07T10:42:06.804Z,89.30
2018-06-07T10:44:35.716Z,88.40
2018-06-07T10:47:06.289Z,88.10
2018-06-07T10:49:36.515Z,87.90
2018-06-07T10:52:05.720Z,88.30
2018-06-07T10:54:34.619Z,87.90
2018-06-07T10:57:03.808Z,88.10
2018-06-07T10:59:34.340Z,88.40
2018-06-07T11:04:32.284Z,88.50
2018-06-07T11:07:01.302Z,87.10
2018-06-07T11:09:30.211Z,87.60
2018-06-07T11:14:32.513Z,87.90
2018-06-07T11:17:01.676Z,87.90
2018-06-07T11:19:31.987Z,86.70
2018-06-07T11:22:00.891Z,87.20
2018-06-07T11:24:30.113Z,85.90
2018-06-07T11:27:00.544Z,86.60
2018-06-07T11:29:29.458Z,84.60
2018-06-07T11:31:59.984Z,85.10
2018-06-07T11:34:36.751Z,85.20
2018-06-07T11:39:35.926Z,84.70
2018-06-07T11:42:07.279Z,85.20
2018-06-07T11:44:38.084Z,87.00
2018-06-07T11:47:08.871Z,84.00
2018-06-07T11:52:07.696Z,86.70
2018-06-07T11:54:36.603Z,86.20
2018-06-07T11:57:05.844Z,87.30
2018-06-07T11:59:35.826Z,86.10
2018-06-07T12:02:05.000Z,86.30
2018-06-07T12:04:33.915Z,85.60
2018-06-07T12:07:03.151Z,86.80
2018-06-07T12:09:32.067Z,86.90
2018-06-07T12:12:02.711Z,86.90
2018-06-07T12:14:33.821Z,87.20
2018-06-07T12:17:02.734Z,84.60
2018-06-07T12:22:01.939Z,83.60
2018-06-07T12:24:30.905Z,83.20
2018-06-07T12:27:01.312Z,83.20
2018-06-07T12:29:31.454Z,84.80
2018-06-07T12:32:02.080Z,82.20
2018-06-07T12:34:30.980Z,83.10
2018-06-07T12:37:01.275Z,82.70
2018-06-07T12:39:30.177Z,83.60
2018-06-07T12:42:00.836Z,83.80
2018-06-07T12:44:31.092Z,83.40
2018-06-07T12:47:00.202Z,83.60
2018-06-07T12:49:30.619Z,82.80
2018-06-07T12:51:59.731Z,82.00
2018-06-07T12:56:57.487Z,83.00
2018-06-07T12:59:27.623Z,82.50
2018-06-07T13:01:56.938Z,82.90
2018-06-07T13:04:25.838Z,82.60
2018-06-07T13:06:54.856Z,83.10
2018-06-07T13:09:25.131Z,83.40
2018-06-07T13:11:54.635Z,83.90
2018-06-07T13:14:31.626Z,84.40
2018-06-07T13:17:01.046Z,83.60
2018-06-07T13:19:31.043Z,84.00
2018-06-07T13:22:00.656Z,84.70
2018-06-07T13:24:29.551Z,84.40
2018-06-07T13:29:29.532Z,84.60
2018-06-07T13:31:59.917Z,85.60
2018-06-07T13:34:28.832Z,87.40
2018-06-07T13:36:59.108Z,89.70
2018-06-07T13:39:29.347Z,90.50
2018-06-07T13:41:59.824Z,91.10
2018-06-07T13:44:28.740Z,90.90
2018-06-07T13:46:57.659Z,90.40
2018-06-07T13:49:27.679Z,90.60
2018-06-07T13:51:56.603Z,90.50
2018-06-07T13:54:25.736Z,91.00
2018-06-07T13:56:54.612Z,91.90
2018-06-07T13:59:24.905Z,91.70
2018-06-07T14:01:53.820Z,91.10
2018-06-07T14:04:23.073Z,90.10
2018-06-07T14:06:53.411Z,90.40
2018-06-07T14:09:22.422Z,91.50
2018-06-07T14:11:51.328Z,92.10
2018-06-07T14:14:29.310Z,92.10
2018-06-07T14:16:58.891Z,91.80
2018-06-07T14:19:29.027Z,89.60
2018-06-07T14:21:57.935Z,84.50
2018-06-07T14:24:26.978Z,84.60
2018-06-07T14:26:57.711Z,86.50
2018-06-07T14:29:26.725Z,87.60
2018-06-07T14:31:57.263Z,87.60
2018-06-07T14:34:27.457Z,88.20
2018-06-07T14:36:57.692Z,88.40
2018-06-07T14:39:28.052Z,88.10
2018-06-07T14:41:58.641Z,88.50
2018-06-07T14:44:27.699Z,89.30
2018-06-07T14:46:56.627Z,89.50
2018-06-07T14:49:27.127Z,89.20
2018-06-07T14:51:56.032Z,89.60
2018-06-07T14:54:25.004Z,88.30
2018-06-07T14:56:54.216Z,89.80
2018-06-07T14:59:24.600Z,90.20
2018-06-07T15:04:23.408Z,91.80
2018-06-07T15:06:52.560Z,93.20
2018-06-07T15:09:21.572Z,93.80
2018-06-07T15:11:50.775Z,94.00
2018-06-07T15:14:29.425Z,93.80
2018-06-07T15:16:59.096Z,95.10
2018-06-07T15:19:29.667Z,94.60
2018-06-07T15:21:58.640Z,96.90
2018-06-07T15:24:27.914Z,98.50
2018-06-07T15:26:58.357Z,97.70
2018-06-07T15:29:27.389Z,99.10
2018-06-07T15:31:57.772Z,96.00
2018-06-07T15:34:36.524Z,94.90
2018-06-07T15:37:07.096Z,94.60
2018-06-07T15:39:36.105Z,94.30
2018-06-07T15:42:08.561Z,94.20
2018-06-07T15:44:37.568Z,94.50
2018-06-07T15:47:08.138Z,94.60
2018-06-07T15:49:38.217Z,94.50
2018-06-07T15:52:07.138Z,94.60
2018-06-07T15:54:37.176Z,95.50
2018-06-07T15:57:07.817Z,95.60
2018-06-07T15:59:37.859Z,94.90
2018-06-07T16:02:08.565Z,94.80
2018-06-07T16:04:37.764Z,94.50
2018-06-07T16:07:06.659Z,94.10
2018-06-07T16:12:05.702Z,93.10
2018-06-07T16:14:35.944Z,93.20
2018-06-07T16:17:04.979Z,93.70
2018-06-07T16:19:35.320Z,95.40
2018-06-07T16:22:04.279Z,95.80
2018-06-07T16:24:33.294Z,95.30
2018-06-07T16:27:04.347Z,95.40
2018-06-07T16:29:34.779Z,96.00
2018-06-07T16:32:05.602Z,96.90
2018-06-07T16:34:34.987Z,97.40
2018-06-07T16:37:05.364Z,97.70
2018-06-07T16:39:34.371Z,97.70
2018-06-07T16:42:03.968Z,97.60
2018-06-07T16:44:32.947Z,96.90
2018-06-07T16:47:03.612Z,96.60
2018-06-07T16:49:33.916Z,96.60
2018-06-07T16:52:02.851Z,96.60
2018-06-07T16:54:31.871Z,96.60
2018-06-07T16:57:02.433Z,96.60
2018-06-07T17:02:01.659Z,96.60
2018-06-07T17:04:30.591Z,96.60
2018-06-07T17:06:59.946Z,96.60
2018-06-07T17:09:30.992Z,96.70
2018-06-07T17:12:01.099Z,96.60
2018-06-07T17:14:32.331Z,97.00
2018-06-07T17:17:01.463Z,95.70
2018-06-07T17:19:31.642Z,94.10
2018-06-07T17:22:00.521Z,93.90
2018-06-07T17:24:29.384Z,93.70
2018-06-07T17:26:59.449Z,94.10
2018-06-07T17:29:29.809Z,94.10
2018-06-07T17:31:58.942Z,94.10
2018-06-07T17:34:27.821Z,93.80
2018-06-07T17:36:58.187Z,95.50
2018-06-07T17:39:28.835Z,97.70
2018-06-07T17:41:59.332Z,99.70
2018-06-07T17:44:28.331Z,99.90
2018-06-07T17:46:59.076Z,99.90
2018-06-07T17:49:29.127Z,99.90
2018-06-07T17:51:58.172Z,99.90
2018-06-07T17:54:27.746Z,99.90
2018-06-07T17:56:57.927Z,99.90
2018-06-07T17:59:28.287Z,99.90
2018-06-07T18:01:57.887Z,99.90
2018-06-07T18:04:26.809Z,99.90
2018-06-07T18:06:55.797Z,99.90
2018-06-07T18:09:24.713Z,99.90
2018-06-07T18:11:55.246Z,99.90
2018-06-07T18:17:01.166Z,99.90
2018-06-07T18:19:31.183Z,99.90
2018-06-07T18:22:00.254Z,99.90
2018-06-07T18:24:29.567Z,99.90
2018-06-07T18:26:59.909Z,99.90
2018-06-07T18:29:28.892Z,99.90
2018-06-07T18:31:58.000Z,99.90
2018-06-07T18:34:26.955Z,99.90
2018-06-07T18:36:58.443Z,99.90
2018-06-07T18:39:28.560Z,99.90
2018-06-07T18:41:59.191Z,99.90
2018-06-07T18:44:28.136Z,99.90
2018-06-07T18:46:59.011Z,99.90
2018-06-07T18:49:29.212Z,99.90
2018-06-07T18:51:58.448Z,99.90
2018-06-07T18:54:28.654Z,99.90
2018-06-07T18:56:59.079Z,99.90
2018-06-07T18:59:29.317Z,99.90
2018-06-07T19:01:58.607Z,99.90
2018-06-07T19:06:56.515Z,99.90
2018-06-07T19:09:30.695Z,99.90
2018-06-07T19:12:00.027Z,99.90
2018-06-07T19:14:42.624Z,99.90
2018-06-07T19:17:11.641Z,99.90
2018-06-07T19:19:47.179Z,99.90
2018-06-07T19:22:16.095Z,99.90
2018-06-07T19:24:50.631Z,99.90
2018-06-07T19:27:25.419Z,99.90
2018-06-07T19:29:54.672Z,99.90
2018-06-07T19:32:28.871Z,99.90
2018-06-07T19:35:03.121Z,99.90
2018-06-07T19:37:33.675Z,99.90
2018-06-07T19:42:46.573Z,99.90
2018-06-07T19:45:15.464Z,99.90
2018-06-07T19:47:46.037Z,99.90
2018-06-07T19:50:16.468Z,99.90
2018-06-07T19:52:47.592Z,99.90
2018-06-07T19:55:16.498Z,99.90
2018-06-07T19:57:46.758Z,99.90
2018-06-07T20:00:15.663Z,99.90
2018-06-07T20:02:44.807Z,99.90
2018-06-07T20:05:13.711Z,99.90
2018-06-07T20:07:43.019Z,99.90
2018-06-07T20:10:11.908Z,99.90
2018-06-07T20:12:40.917Z,99.90
2018-06-07T20:15:12.246Z,99.90
2018-06-07T20:17:42.989Z,99.90
2018-06-07T20:20:11.900Z,99.90
2018-06-07T20:22:42.369Z,99.90
2018-06-07T20:25:12.517Z,99.90
2018-06-07T20:27:43.063Z,99.90
2018-06-07T20:30:11.968Z,99.90
2018-06-07T20:32:41.191Z,99.90
2018-06-07T20:35:10.148Z,99.90
2018-06-07T20:37:40.636Z,99.90
2018-06-07T20:42:46.657Z,99.90
2018-06-07T20:45:15.575Z,99.90
2018-06-07T20:47:45.931Z,99.90
2018-06-07T20:50:16.648Z,99.90
2018-06-07T20:52:45.619Z,99.90
2018-06-07T20:55:14.575Z,99.90
2018-06-07T20:57:46.167Z,99.90
2018-06-07T21:00:15.084Z,99.90
2018-06-07T21:02:44.635Z,99.90
2018-06-07T21:05:13.551Z,99.90
2018-06-07T21:07:42.496Z,99.90
2018-06-07T21:10:11.619Z,99.90
2018-06-07T21:15:10.952Z,99.90
2018-06-07T21:17:41.582Z,99.90
2018-06-07T21:22:40.393Z,99.90
2018-06-07T21:25:09.392Z,99.90
2018-06-07T21:27:39.801Z,99.90
2018-06-07T21:32:37.380Z,99.90
2018-06-07T21:35:07.504Z,99.90
2018-06-07T21:42:38.068Z,99.90
2018-06-07T21:45:07.467Z,99.90
2018-06-07T21:47:38.179Z,99.90
2018-06-07T21:50:08.339Z,99.90
2018-06-07T21:52:37.244Z,99.90
2018-06-07T21:55:06.330Z,99.90
2018-06-07T21:57:45.436Z,99.90
2018-06-07T22:00:15.942Z,99.90
2018-06-07T22:02:44.848Z,99.90
2018-06-07T22:05:15.032Z,99.90
2018-06-07T22:07:44.340Z,99.90
2018-06-07T22:10:13.343Z,99.90
2018-06-07T22:12:42.248Z,99.90
2018-06-07T22:15:13.084Z,99.90
2018-06-07T22:17:43.547Z,99.90
2018-06-07T22:20:12.628Z,99.90
2018-06-07T22:22:41.545Z,99.90
2018-06-07T22:25:12.072Z,99.90
2018-06-07T22:27:42.634Z,99.90
2018-06-07T22:30:11.624Z,99.90
2018-06-07T22:32:40.715Z,99.90
2018-06-07T22:35:11.078Z,99.90
2018-06-07T22:37:41.449Z,99.90
2018-06-07T22:40:10.460Z,99.90
2018-06-07T22:42:41.081Z,99.90
2018-06-07T22:45:10.144Z,99.90
2018-06-07T22:47:41.005Z,99.90
2018-06-07T22:50:11.667Z,99.90
2018-06-07T22:52:40.719Z,99.90
2018-06-07T22:55:09.736Z,99.90
2018-06-07T22:57:45.985Z,99.90
2018-06-07T23:00:15.920Z,99.90
2018-06-07T23:02:51.163Z,99.90
2018-06-07T23:05:20.348Z,99.90
2018-06-07T23:07:49.277Z,99.90
2018-06-07T23:10:18.311Z,99.90
2018-06-07T23:12:47.562Z,99.90
2018-06-07T23:15:18.167Z,99.90
2018-06-07T23:17:48.733Z,99.90
2018-06-07T23:20:17.704Z,99.90
2018-06-07T23:22:46.611Z,99.90
2018-06-07T23:25:15.645Z,99.90
2018-06-07T23:27:45.996Z,99.90
2018-06-07T23:30:15.017Z,99.90
2018-06-07T23:32:53.503Z,99.90
2018-06-07T23:35:22.524Z,99.90
2018-06-07T23:37:53.852Z,99.90
2018-06-07T23:43:03.200Z,99.90
2018-06-07T23:45:32.331Z,99.90
2018-06-07T23:48:02.860Z,99.90
2018-06-07T23:50:31.936Z,99.90
2018-06-07T23:55:29.782Z,99.90
2018-06-07T23:58:00.251Z,99.90
